SBPL/PNZ METAR and TAF weather

Enter ICAO airport designator
Station Type Date Time Source
SBPL METAR 2021/05/12 04:00 UTC NOAA

SBPL 120400Z 17010KT 9999 SCT020 OVC070 24/18 Q1016


Station Type Date Time Source
SBPL Decoded METAR 2021/05/12 04:00 UTC NOAA

Petrolina , Brazil (SBPL) 09-21S 040-33W
May 12, 2021 - 12:00 AM EDT / 2021.05.12 0400 UTC
Wind: from the S (170 degrees) at 12 MPH (10 KT):0
Visibility: greater than 7 mile(s):0
Sky conditions: overcast
Temperature: 75 F (24 C)
Dew Point: 64 F (18 C)
Relative Humidity: 69%
Pressure (altimeter): 30.00 in. Hg (1016 hPa)
ob: SBPL 120400Z 17010KT 9999 SCT020 OVC070 24/18 Q1016
cycle: 4

Station Type Date Time Source
SBPL TAF 2021/05/12 06:45 UTC NOAA

TAF SBPL 120342Z 1206/1306 16010KT 9999 BKN020 TN21/1209Z TX31/1219Z
BECMG 1216/1218 18015KT FEW020
BECMG 1304/1306 15010KT SCT020
RMK PFV

Example: see airport list